Time;durP1;ratioP1;P1;durP2;ratioP2;P2;SDS_P1;SDS_P2;PMS_P1;PMS_P2;Temp;Humidity;BMP_temperature;BMP_pressure;BME280_temperature;BME280_humidity;BME280_pressure;Samples;Min_cycle;Max_cycle;Signal;HPM_P1;HPM_P2
2022/07/31 00:01:25;;;;;;;0.10;0.10;;;;;;;;;;5062929;28;20054;-87
2022/07/31 00:03:51;;;;;;;0.08;0.08;;;;;;;;;;5079325;28;20032;-87
2022/07/31 00:06:19;;;;;;;0.20;0.20;;;;;;;;;;5078620;28;20047;-87
2022/07/31 00:08:45;;;;;;;0.00;0.00;;;;;;;;;;5058099;28;20044;-87
2022/07/31 00:11:11;;;;;;;0.00;0.00;;;;;;;;;;5078802;28;20043;-87
2022/07/31 00:13:37;;;;;;;0.00;0.00;;;;;;;;;;5078961;28;20040;-87
2022/07/31 00:16:03;;;;;;;0.10;0.10;;;;;;;;;;5056554;28;20032;-87
2022/07/31 00:18:29;;;;;;;0.10;0.10;;;;;;;;;;5062297;28;20044;-87
2022/07/31 00:20:55;;;;;;;0.10;0.10;;;;;;;;;;5062673;28;20036;-88
2022/07/31 00:23:21;;;;;;;0.10;0.10;;;;;;;;;;5061011;28;20048;-87
2022/07/31 00:25:47;;;;;;;0.10;0.10;;;;;;;;;;5079052;28;20055;-87
2022/07/31 00:28:13;;;;;;;0.00;0.00;;;;;;;;;;5079845;28;20047;-87
2022/07/31 00:30:39;;;;;;;0.10;0.10;;;;;;;;;;5079173;28;20053;-87
2022/07/31 00:33:05;;;;;;;0.00;0.00;;;;;;;;;;5061683;28;20032;-87
2022/07/31 00:35:32;;;;;;;0.10;0.10;;;;;;;;;;5061640;28;20066;-87
2022/07/31 00:37:58;;;;;;;0.10;0.10;;;;;;;;;;5062188;28;20043;-87
2022/07/31 00:40:24;;;;;;;0.10;0.10;;;;;;;;;;5078154;28;20039;-87
2022/07/31 00:42:50;;;;;;;0.05;0.05;;;;;;;;;;5078341;28;20058;-88
2022/07/31 00:45:16;;;;;;;0.00;0.00;;;;;;;;;;5062083;28;20040;-86
2022/07/31 00:47:42;;;;;;;0.10;0.10;;;;;;;;;;5059854;28;20121;-87
2022/07/31 00:50:09;;;;;;;0.10;0.10;;;;;;;;;;5073738;28;20096;-87
2022/07/31 00:52:35;;;;;;;0.08;0.08;;;;;;;;;;5078224;28;20123;-88
2022/07/31 00:55:01;;;;;;;0.10;0.10;;;;;;;;;;5062430;28;20028;-87
2022/07/31 00:57:28;;;;;;;0.10;0.10;;;;;;;;;;5061818;28;20120;-87
2022/07/31 00:59:56;;;;;;;0.05;0.05;;;;;;;;;;5077799;28;20036;-87
2022/07/31 01:02:22;;;;;;;0.00;0.00;;;;;;;;;;5061974;28;20489;-88
2022/07/31 01:04:48;;;;;;;0.10;0.10;;;;;;;;;;5057799;28;20135;-88
2022/07/31 01:07:14;;;;;;;0.20;0.20;;;;;;;;;;5057287;28;20075;-88
2022/07/31 01:09:41;;;;;;;0.10;0.10;;;;;;;;;;5078011;28;20047;-88
2022/07/31 01:12:26;;;;;;;0.03;0.03;;;;;;;;;;5061584;28;20040;-87
2022/07/31 01:14:54;;;;;;;0.00;0.00;;;;;;;;;;5078019;28;20028;-88
2022/07/31 01:17:21;;;;;;;0.10;0.10;;;;;;;;;;5061323;28;20131;-88
2022/07/31 01:19:48;;;;;;;0.10;0.10;;;;;;;;;;5077236;28;20040;-87
2022/07/31 01:22:33;;;;;;;0.10;0.10;;;;;;;;;;5064542;28;20021;-88
2022/07/31 01:25:18;;;;;;;0.13;0.13;;;;;;;;;;5053894;28;20051;-87
2022/07/31 01:27:50;;;;;;;0.10;0.10;;;;;;;;;;5077847;28;20082;-87
2022/07/31 01:30:17;;;;;;;0.10;0.10;;;;;;;;;;5077346;28;20032;-87
2022/07/31 01:32:44;;;;;;;0.08;0.08;;;;;;;;;;5061457;28;20039;-87
2022/07/31 01:35:10;;;;;;;0.05;0.05;;;;;;;;;;5061149;28;20070;-87
2022/07/31 01:37:38;;;;;;;0.10;0.10;;;;;;;;;;5077785;28;20040;-86
2022/07/31 01:40:08;;;;;;;0.00;0.00;;;;;;;;;;5076976;28;20121;-87
2022/07/31 01:42:36;;;;;;;0.10;0.10;;;;;;;;;;5060417;28;20055;-87
2022/07/31 01:45:02;;;;;;;0.10;0.10;;;;;;;;;;5078074;28;20040;-86
2022/07/31 01:47:30;;;;;;;0.00;0.00;;;;;;;;;;5061825;28;20083;-88
2022/07/31 01:49:57;;;;;;;0.00;0.00;;;;;;;;;;5078032;28;20458;-87
2022/07/31 01:52:25;;;;;;;0.00;0.00;;;;;;;;;;5077593;28;20318;-88
2022/07/31 01:54:51;;;;;;;0.00;0.00;;;;;;;;;;5078165;28;20078;-87
2022/07/31 01:57:18;;;;;;;0.10;0.10;;;;;;;;;;5044225;28;20035;-87
2022/07/31 01:59:45;;;;;;;0.10;0.10;;;;;;;;;;5060544;28;20032;-87
2022/07/31 02:02:11;;;;;;;0.10;0.10;;;;;;;;;;5061530;28;20127;-87
2022/07/31 02:04:38;;;;;;;0.00;0.00;;;;;;;;;;5077523;28;20390;-87
2022/07/31 02:07:05;;;;;;;0.00;0.00;;;;;;;;;;5060760;28;20048;-87
2022/07/31 02:09:32;;;;;;;0.10;0.10;;;;;;;;;;5053750;28;20076;-87
2022/07/31 02:11:59;;;;;;;0.10;0.10;;;;;;;;;;5053558;28;20047;-87
2022/07/31 02:14:26;;;;;;;0.10;0.10;;;;;;;;;;5060376;28;20089;-87
2022/07/31 02:16:52;;;;;;;0.10;0.10;;;;;;;;;;5051996;28;20071;-87
2022/07/31 02:19:19;;;;;;;0.10;0.10;;;;;;;;;;5053894;28;20033;-87
2022/07/31 02:21:45;;;;;;;0.00;0.00;;;;;;;;;;5058431;28;20043;-87
2022/07/31 02:24:11;;;;;;;0.10;0.10;;;;;;;;;;5060465;28;20040;-88
2022/07/31 02:26:38;;;;;;;0.00;0.00;;;;;;;;;;5076668;28;20156;-87
2022/07/31 02:29:06;;;;;;;0.10;0.10;;;;;;;;;;5076342;28;20449;-88
2022/07/31 02:31:32;;;;;;;0.10;0.10;;;;;;;;;;5043307;28;20520;-87
2022/07/31 02:33:59;;;;;;;0.00;0.00;;;;;;;;;;5076231;28;20091;-86
2022/07/31 02:36:26;;;;;;;0.10;0.10;;;;;;;;;;5059389;28;20040;-87
2022/07/31 02:38:53;;;;;;;0.10;0.10;;;;;;;;;;5059403;28;20037;-87
2022/07/31 02:41:20;;;;;;;0.00;0.00;;;;;;;;;;5075510;28;20509;-87
2022/07/31 02:43:47;;;;;;;0.00;0.00;;;;;;;;;;5076258;28;20040;-87
2022/07/31 02:46:13;;;;;;;0.00;0.00;;;;;;;;;;5076187;28;20032;-87
2022/07/31 02:48:40;;;;;;;0.00;0.00;;;;;;;;;;5052203;28;20032;-87
2022/07/31 02:51:07;;;;;;;0.00;0.00;;;;;;;;;;5060108;28;20059;-87
2022/07/31 02:53:33;;;;;;;0.00;0.00;;;;;;;;;;5035606;28;20089;-86
2022/07/31 02:56:01;;;;;;;0.10;0.10;;;;;;;;;;5059719;28;20040;-87
2022/07/31 02:58:27;;;;;;;0.10;0.10;;;;;;;;;;5059974;28;20047;-87
2022/07/31 03:01:00;;;;;;;0.05;0.05;;;;;;;;;;5059656;28;20455;-86
2022/07/31 03:03:26;;;;;;;0.00;0.00;;;;;;;;;;5059809;28;20477;-87
2022/07/31 03:05:52;;;;;;;0.00;0.00;;;;;;;;;;5056262;28;20033;-87
2022/07/31 03:08:18;;;;;;;0.10;0.10;;;;;;;;;;5059322;28;20432;-87
2022/07/31 03:10:44;;;;;;;0.10;0.10;;;;;;;;;;5059290;28;20155;-87
2022/07/31 03:13:10;;;;;;;0.00;0.00;;;;;;;;;;5059277;28;20076;-87
2022/07/31 03:15:38;;;;;;;0.00;0.00;;;;;;;;;;5059130;28;20036;-87
2022/07/31 03:18:05;;;;;;;0.00;0.00;;;;;;;;;;5076204;28;20077;-87
2022/07/31 03:20:32;;;;;;;0.10;0.10;;;;;;;;;;5076706;28;20073;-87
2022/07/31 03:22:59;;;;;;;0.00;0.00;;;;;;;;;;5075858;28;20397;-87
2022/07/31 03:25:25;;;;;;;0.10;0.10;;;;;;;;;;5077242;28;20508;-87
2022/07/31 03:27:52;;;;;;;0.10;0.10;;;;;;;;;;5060079;28;20040;-87
2022/07/31 03:30:23;;;;;;;0.10;0.10;;;;;;;;;;5043441;28;20044;-88
2022/07/31 03:32:49;;;;;;;0.15;0.15;;;;;;;;;;5063361;28;20048;-86
2022/07/31 03:35:16;;;;;;;0.10;0.10;;;;;;;;;;5062060;28;20032;-87
2022/07/31 03:37:42;;;;;;;0.20;0.20;;;;;;;;;;5061352;28;20060;-86
2022/07/31 03:40:09;;;;;;;0.08;0.08;;;;;;;;;;5063601;28;20039;-86
2022/07/31 03:42:35;;;;;;;0.10;0.10;;;;;;;;;;5071679;28;20041;-86
2022/07/31 03:45:02;;;;;;;0.00;0.00;;;;;;;;;;5062637;28;20032;-88
2022/07/31 03:47:28;;;;;;;0.08;0.08;;;;;;;;;;5079596;28;20043;-87
2022/07/31 03:49:54;;;;;;;0.10;0.10;;;;;;;;;;5063657;28;20039;-86
2022/07/31 03:52:20;;;;;;;0.20;0.20;;;;;;;;;;5080028;28;20040;-87
2022/07/31 03:54:46;;;;;;;0.10;0.10;;;;;;;;;;5079434;28;20139;-87
2022/07/31 03:57:14;;;;;;;0.10;0.10;;;;;;;;;;5059222;28;20028;-87
2022/07/31 03:59:41;;;;;;;0.10;0.10;;;;;;;;;;5043281;28;20047;-87
2022/07/31 04:02:09;;;;;;;0.10;0.10;;;;;;;;;;5058793;28;20036;-88
2022/07/31 04:04:35;;;;;;;0.10;0.10;;;;;;;;;;5062635;28;20060;-87
2022/07/31 04:07:01;;;;;;;0.10;0.10;;;;;;;;;;5063273;28;20036;-86
2022/07/31 04:09:28;;;;;;;0.05;0.05;;;;;;;;;;5062646;28;20047;-87
2022/07/31 04:11:54;;;;;;;0.00;0.00;;;;;;;;;;5053301;28;20078;-85
2022/07/31 04:14:20;;;;;;;0.10;0.10;;;;;;;;;;5079248;28;20103;-86
2022/07/31 04:16:46;;;;;;;0.20;0.20;;;;;;;;;;5078961;28;20040;-87
2022/07/31 04:19:12;;;;;;;0.10;0.10;;;;;;;;;;5062026;28;20139;-87
2022/07/31 04:21:38;;;;;;;0.00;0.00;;;;;;;;;;5078999;28;20047;-87
2022/07/31 04:24:04;;;;;;;0.17;0.17;;;;;;;;;;5052527;28;20400;-87
2022/07/31 04:26:30;;;;;;;0.10;0.10;;;;;;;;;;5079338;28;20055;-87
2022/07/31 04:28:56;;;;;;;0.10;0.10;;;;;;;;;;5071878;28;20039;-88
2022/07/31 04:31:22;;;;;;;0.20;0.20;;;;;;;;;;5062157;28;20036;-86
2022/07/31 04:33:49;;;;;;;0.10;0.10;;;;;;;;;;5062752;28;20047;-88
2022/07/31 04:36:16;;;;;;;0.10;0.10;;;;;;;;;;5062762;28;20032;-88
2022/07/31 04:38:42;;;;;;;0.20;0.20;;;;;;;;;;5063324;28;20533;-88
2022/07/31 04:41:08;;;;;;;0.20;0.20;;;;;;;;;;5062430;28;20036;-88
2022/07/31 04:43:34;;;;;;;0.00;0.00;;;;;;;;;;5063002;28;20566;-88
2022/07/31 04:46:00;;;;;;;0.10;0.10;;;;;;;;;;5063043;28;20040;-86
2022/07/31 04:48:26;;;;;;;0.00;0.00;;;;;;;;;;5048182;28;20085;-87
2022/07/31 04:50:52;;;;;;;0.10;0.10;;;;;;;;;;5062532;28;20076;-88
2022/07/31 04:53:18;;;;;;;0.00;0.00;;;;;;;;;;5061922;28;20079;-87
2022/07/31 04:56:32;;;;;;;0.00;0.00;;;;;;;;;;5061475;28;20107;-86
2022/07/31 04:58:31;;;;;;;0.15;0.15;;;;;;;;;;5078722;28;20440;-87
2022/07/31 05:00:57;;;;;;;0.10;0.10;;;;;;;;;;5070196;28;20560;-86
2022/07/31 05:03:23;;;;;;;0.00;0.00;;;;;;;;;;5061040;28;20076;-87
2022/07/31 05:05:49;;;;;;;0.00;0.00;;;;;;;;;;5061697;28;20054;-86
2022/07/31 05:08:15;;;;;;;0.10;0.10;;;;;;;;;;5061799;28;20039;-87
2022/07/31 05:13:26;;;;;;;0.00;0.00;;;;;;;;;;5078518;28;20051;-87
2022/07/31 05:15:52;;;;;;;0.08;0.08;;;;;;;;;;5078194;28;20032;-88
2022/07/31 05:18:19;;;;;;;0.20;0.20;;;;;;;;;;5078570;28;20120;-87
2022/07/31 05:20:48;;;;;;;0.10;0.10;;;;;;;;;;5078991;28;20038;-87
2022/07/31 05:23:14;;;;;;;0.10;0.10;;;;;;;;;;5078379;28;20040;-86
2022/07/31 05:25:40;;;;;;;0.10;0.10;;;;;;;;;;5058158;28;20087;-87
2022/07/31 05:28:07;;;;;;;0.00;0.00;;;;;;;;;;5061207;28;20089;-87
2022/07/31 05:30:33;;;;;;;0.10;0.10;;;;;;;;;;5056999;28;20048;-88
2022/07/31 05:32:59;;;;;;;0.10;0.10;;;;;;;;;;5051223;28;20414;-87
2022/07/31 05:35:25;;;;;;;0.00;0.00;;;;;;;;;;5055549;28;20040;-87
2022/07/31 05:37:51;;;;;;;0.10;0.10;;;;;;;;;;5075441;28;20477;-87
2022/07/31 05:40:17;;;;;;;0.08;0.08;;;;;;;;;;5059899;28;20039;-88
2022/07/31 05:42:43;;;;;;;0.10;0.10;;;;;;;;;;5076370;28;20032;-88
2022/07/31 05:45:10;;;;;;;0.10;0.10;;;;;;;;;;5060053;28;20036;-88
2022/07/31 05:47:36;;;;;;;0.10;0.10;;;;;;;;;;5059768;28;20040;-88
2022/07/31 05:50:03;;;;;;;0.10;0.10;;;;;;;;;;5058674;28;20036;-88
2022/07/31 05:52:30;;;;;;;0.05;0.05;;;;;;;;;;5059800;28;20044;-88
2022/07/31 05:54:56;;;;;;;1.38;1.17;;;;;;;;;;5077652;28;20040;-88
2022/07/31 05:57:22;;;;;;;0.20;0.20;;;;;;;;;;5060656;28;20043;-88
2022/07/31 05:59:48;;;;;;;0.10;0.10;;;;;;;;;;5093592;28;20130;-87
2022/07/31 06:02:14;;;;;;;0.10;0.10;;;;;;;;;;5060042;28;20079;-88
2022/07/31 06:04:40;;;;;;;0.08;0.08;;;;;;;;;;5060269;28;20036;-87
2022/07/31 06:07:06;;;;;;;0.08;0.08;;;;;;;;;;5060449;28;20422;-88
2022/07/31 06:09:32;;;;;;;0.00;0.00;;;;;;;;;;5076474;28;20574;-88
2022/07/31 06:11:58;;;;;;;0.30;0.30;;;;;;;;;;5058873;28;20123;-88
2022/07/31 06:14:24;;;;;;;0.00;0.00;;;;;;;;;;5059956;28;20443;-88
2022/07/31 06:16:51;;;;;;;0.10;0.10;;;;;;;;;;5060065;28;20036;-87
2022/07/31 06:19:19;;;;;;;0.00;0.00;;;;;;;;;;5059974;28;20476;-87
2022/07/31 06:21:45;;;;;;;0.00;0.00;;;;;;;;;;5069343;28;20115;-87
2022/07/31 06:24:11;;;;;;;0.20;0.20;;;;;;;;;;5059780;28;20044;-88
2022/07/31 06:26:37;;;;;;;0.10;0.10;;;;;;;;;;5059882;28;20484;-88
2022/07/31 06:29:03;;;;;;;0.00;0.00;;;;;;;;;;5059545;28;20122;-88
2022/07/31 06:31:29;;;;;;;0.10;0.10;;;;;;;;;;5075996;28;20048;-87
2022/07/31 06:33:55;;;;;;;0.10;0.10;;;;;;;;;;5076008;28;20046;-86
2022/07/31 06:36:21;;;;;;;0.00;0.00;;;;;;;;;;5076112;28;20036;-86
2022/07/31 06:38:48;;;;;;;0.00;0.00;;;;;;;;;;5070266;28;20059;-86
2022/07/31 06:41:43;;;;;;;0.00;0.00;;;;;;;;;;5047220;28;20409;-86
2022/07/31 06:43:59;;;;;;;0.10;0.10;;;;;;;;;;5061418;28;20040;-86
2022/07/31 06:46:25;;;;;;;0.10;0.10;;;;;;;;;;5054258;28;20039;-86
2022/07/31 06:48:51;;;;;;;0.10;0.10;;;;;;;;;;5059402;28;20075;-86
2022/07/31 06:51:18;;;;;;;0.10;0.10;;;;;;;;;;5076115;28;20036;-87
2022/07/31 06:53:44;;;;;;;0.10;0.10;;;;;;;;;;5059395;28;20043;-86
2022/07/31 06:56:10;;;;;;;0.05;0.05;;;;;;;;;;5059482;28;20067;-86
2022/07/31 06:58:36;;;;;;;0.08;0.08;;;;;;;;;;5059169;28;20409;-86
2022/07/31 07:01:02;;;;;;;0.03;0.03;;;;;;;;;;5058694;28;20385;-86
2022/07/31 07:03:28;;;;;;;0.10;0.10;;;;;;;;;;5059467;28;20046;-87
2022/07/31 07:05:54;;;;;;;0.00;0.00;;;;;;;;;;5056259;28;20036;-87
2022/07/31 07:08:20;;;;;;;0.00;0.00;;;;;;;;;;5063100;28;20123;-85
2022/07/31 07:10:46;;;;;;;0.00;0.00;;;;;;;;;;5077861;28;20047;-87
2022/07/31 07:13:12;;;;;;;0.00;0.00;;;;;;;;;;5058015;28;20558;-87
2022/07/31 07:15:38;;;;;;;0.10;0.10;;;;;;;;;;5057854;28;20036;-87
2022/07/31 07:18:04;;;;;;;0.08;0.08;;;;;;;;;;5062240;28;20042;-87
2022/07/31 07:20:31;;;;;;;0.08;0.08;;;;;;;;;;5053912;28;20033;-87
2022/07/31 07:22:57;;;;;;;0.10;0.10;;;;;;;;;;5075094;28;20039;-86
2022/07/31 07:25:24;;;;;;;0.10;0.10;;;;;;;;;;5081264;28;20038;-88
2022/07/31 07:27:50;;;;;;;0.10;0.10;;;;;;;;;;5061320;28;20123;-88
2022/07/31 07:30:16;;;;;;;0.03;0.03;;;;;;;;;;5055769;28;20075;-88
2022/07/31 07:32:42;;;;;;;0.00;0.00;;;;;;;;;;5058199;28;20127;-88
2022/07/31 07:35:08;;;;;;;0.10;0.10;;;;;;;;;;5065927;28;20036;-88
2022/07/31 07:37:34;;;;;;;0.05;0.05;;;;;;;;;;5054049;28;20036;-88
2022/07/31 07:40:00;;;;;;;0.10;0.10;;;;;;;;;;5049502;28;20032;-88
2022/07/31 07:42:26;;;;;;;0.00;0.00;;;;;;;;;;5059371;28;20521;-88
2022/07/31 07:44:52;;;;;;;0.00;0.00;;;;;;;;;;5054068;28;20044;-88
2022/07/31 07:47:18;;;;;;;0.10;0.10;;;;;;;;;;5048484;28;20036;-88
2022/07/31 07:49:44;;;;;;;0.20;0.20;;;;;;;;;;5058953;28;20040;-88
2022/07/31 07:52:10;;;;;;;0.00;0.00;;;;;;;;;;5042866;28;20036;-88
2022/07/31 07:54:36;;;;;;;0.00;0.00;;;;;;;;;;5054616;28;20150;-86
2022/07/31 07:57:03;;;;;;;0.22;0.22;;;;;;;;;;5053417;28;20036;-88
2022/07/31 07:59:29;;;;;;;0.05;0.05;;;;;;;;;;5055205;28;20115;-87
2022/07/31 08:02:11;;;;;;;0.00;0.00;;;;;;;;;;5066824;28;20082;-87
2022/07/31 08:04:37;;;;;;;0.00;0.00;;;;;;;;;;5057532;28;20041;-86
2022/07/31 08:07:03;;;;;;;0.10;0.10;;;;;;;;;;5071627;28;20047;-86
2022/07/31 08:09:29;;;;;;;0.10;0.10;;;;;;;;;;5072559;28;20084;-86
2022/07/31 08:11:55;;;;;;;0.10;0.10;;;;;;;;;;5049577;28;20127;-86
2022/07/31 08:14:21;;;;;;;0.10;0.10;;;;;;;;;;5075269;28;20040;-85
2022/07/31 08:16:49;;;;;;;0.10;0.10;;;;;;;;;;5068131;28;20517;-87
2022/07/31 08:19:15;;;;;;;0.00;0.00;;;;;;;;;;5054869;28;20405;-88
2022/07/31 08:21:45;;;;;;;0.10;0.10;;;;;;;;;;5049781;28;20411;-87
2022/07/31 08:24:11;;;;;;;0.20;0.20;;;;;;;;;;5059577;28;20377;-87
2022/07/31 08:29:22;;;;;;;;;;;;;;;;;;5075007;28;20051;-86
2022/07/31 08:31:48;;;;;;;0.10;0.10;;;;;;;;;;5052689;28;19920;-87
2022/07/31 08:34:14;;;;;;;0.08;0.08;;;;;;;;;;5053585;28;20040;-87
2022/07/31 08:36:40;;;;;;;0.08;0.08;;;;;;;;;;5057066;28;20175;-86
2022/07/31 08:39:09;;;;;;;0.00;0.00;;;;;;;;;;5054405;28;20490;-87
2022/07/31 08:41:37;;;;;;;0.10;0.10;;;;;;;;;;5052515;28;20032;-87
2022/07/31 08:44:07;;;;;;;0.10;0.10;;;;;;;;;;5060739;28;20114;-87
2022/07/31 08:46:36;;;;;;;0.10;0.10;;;;;;;;;;5054012;28;20089;-86
2022/07/31 08:49:03;;;;;;;0.00;0.00;;;;;;;;;;5073707;28;20040;-86
2022/07/31 08:51:34;;;;;;;0.10;0.10;;;;;;;;;;5066823;28;20082;-86
2022/07/31 08:54:09;;;;;;;0.13;0.13;;;;;;;;;;5068149;28;20156;-85
2022/07/31 08:56:36;;;;;;;0.00;0.00;;;;;;;;;;5065299;28;20102;-85
2022/07/31 08:59:02;;;;;;;0.10;0.10;;;;;;;;;;5074854;28;20119;-84
2022/07/31 09:01:29;;;;;;;0.10;0.10;;;;;;;;;;5054984;28;20062;-85
2022/07/31 09:03:56;;;;;;;0.10;0.10;;;;;;;;;;5056760;28;20033;-86
2022/07/31 09:06:22;;;;;;;0.10;0.10;;;;;;;;;;5053467;28;20047;-87
2022/07/31 09:08:48;;;;;;;0.10;0.10;;;;;;;;;;5056408;28;20078;-87
2022/07/31 09:11:14;;;;;;;0.00;0.00;;;;;;;;;;5054187;28;20037;-87
2022/07/31 09:13:51;;;;;;;0.10;0.10;;;;;;;;;;5073595;28;20032;-87
2022/07/31 09:16:17;;;;;;;0.00;0.00;;;;;;;;;;5056928;28;20036;-87
2022/07/31 09:18:43;;;;;;;0.10;0.10;;;;;;;;;;5055857;28;20063;-86
2022/07/31 09:21:09;;;;;;;0.10;0.10;;;;;;;;;;5052055;28;20520;-87
2022/07/31 09:23:43;;;;;;;0.10;0.10;;;;;;;;;;5049542;28;20493;-85
2022/07/31 09:26:12;;;;;;;0.13;0.13;;;;;;;;;;5053898;28;20098;-85
2022/07/31 09:28:43;;;;;;;0.00;0.00;;;;;;;;;;5050074;28;20068;-86
2022/07/31 09:31:09;;;;;;;0.00;0.00;;;;;;;;;;5056917;28;20431;-85
2022/07/31 09:33:38;;;;;;;0.00;0.00;;;;;;;;;;5064523;28;20036;-86
2022/07/31 09:36:05;;;;;;;0.00;0.00;;;;;;;;;;5056942;28;20047;-86
2022/07/31 09:38:32;;;;;;;0.00;0.00;;;;;;;;;;5041814;28;20032;-86
2022/07/31 09:41:09;;;;;;;0.10;0.10;;;;;;;;;;5053920;28;20039;-87
2022/07/31 09:43:35;;;;;;;0.00;0.00;;;;;;;;;;5053898;28;20058;-87
2022/07/31 09:46:02;;;;;;;0.00;0.00;;;;;;;;;;5053693;28;20044;-87
2022/07/31 09:48:28;;;;;;;0.00;0.00;;;;;;;;;;5051042;28;20047;-87
2022/07/31 09:50:58;;;;;;;0.08;0.08;;;;;;;;;;5052069;28;20200;-87
2022/07/31 09:53:24;;;;;;;0.10;0.10;;;;;;;;;;5050402;28;20075;-87
2022/07/31 09:55:55;;;;;;;0.10;0.10;;;;;;;;;;5052521;28;20043;-87
2022/07/31 09:58:23;;;;;;;1.02;0.95;;;;;;;;;;5055069;28;20040;-87
2022/07/31 10:00:50;;;;;;;0.10;0.10;;;;;;;;;;5054893;28;20028;-87
2022/07/31 10:03:20;;;;;;;0.10;0.10;;;;;;;;;;5054656;28;20039;-86
2022/07/31 10:05:46;;;;;;;0.10;0.10;;;;;;;;;;5054258;28;20040;-86
2022/07/31 10:08:16;;;;;;;0.00;0.00;;;;;;;;;;5059895;28;20570;-86
2022/07/31 10:10:46;;;;;;;0.10;0.10;;;;;;;;;;5052169;28;20047;-87
2022/07/31 10:13:14;;;;;;;0.10;0.10;;;;;;;;;;5053201;28;20044;-87
2022/07/31 10:15:42;;;;;;;0.10;0.10;;;;;;;;;;5056726;28;20044;-88
2022/07/31 10:18:17;;;;;;;0.00;0.00;;;;;;;;;;5066411;28;20497;-87
2022/07/31 10:20:48;;;;;;;0.03;0.03;;;;;;;;;;5051835;28;20096;-87
2022/07/31 10:23:15;;;;;;;0.10;0.10;;;;;;;;;;5051196;28;20040;-87
2022/07/31 10:25:45;;;;;;;0.10;0.10;;;;;;;;;;5056006;28;20593;-88
2022/07/31 10:28:13;;;;;;;0.25;0.25;;;;;;;;;;5058258;28;21087;-87
2022/07/31 10:30:39;;;;;;;0.20;0.20;;;;;;;;;;5054322;28;20048;-89
2022/07/31 10:33:05;;;;;;;0.00;0.00;;;;;;;;;;5054396;28;20039;-87
2022/07/31 10:35:31;;;;;;;0.10;0.10;;;;;;;;;;5056160;28;20036;-88
2022/07/31 10:38:07;;;;;;;0.00;0.00;;;;;;;;;;5057534;28;20032;-87
2022/07/31 10:40:41;;;;;;;0.00;0.00;;;;;;;;;;5057482;28;20095;-88
2022/07/31 10:43:10;;;;;;;0.10;0.10;;;;;;;;;;5060063;28;20039;-88
2022/07/31 10:45:55;;;;;;;0.08;0.08;;;;;;;;;;5053760;28;20040;-87
2022/07/31 10:48:22;;;;;;;0.10;0.10;;;;;;;;;;5052888;28;20102;-87
2022/07/31 10:50:48;;;;;;;0.10;0.10;;;;;;;;;;5050522;28;20044;-87
2022/07/31 10:53:17;;;;;;;0.03;0.03;;;;;;;;;;5052067;28;20502;-87
2022/07/31 10:55:44;;;;;;;0.00;0.00;;;;;;;;;;5066715;28;20036;-87
2022/07/31 10:58:14;;;;;;;0.00;0.00;;;;;;;;;;5057223;28;20036;-87
2022/07/31 11:00:41;;;;;;;0.03;0.03;;;;;;;;;;5057859;28;20507;-87
2022/07/31 11:03:22;;;;;;;0.03;0.03;;;;;;;;;;5047196;28;20494;-85
2022/07/31 11:05:58;;;;;;;0.00;0.00;;;;;;;;;;5054303;28;20402;-86
2022/07/31 11:08:25;;;;;;;0.10;0.10;;;;;;;;;;5074621;28;20496;-86
2022/07/31 11:10:54;;;;;;;0.00;0.00;;;;;;;;;;5039614;28;20089;-86
2022/07/31 11:13:21;;;;;;;0.00;0.00;;;;;;;;;;5055008;28;20098;-86
2022/07/31 11:15:47;;;;;;;0.00;0.00;;;;;;;;;;5056012;28;20129;-85
2022/07/31 11:18:23;;;;;;;0.10;0.10;;;;;;;;;;5063275;28;20086;-87
2022/07/31 11:21:03;;;;;;;0.10;0.10;;;;;;;;;;5051706;28;20098;-84
2022/07/31 11:23:30;;;;;;;0.00;0.00;;;;;;;;;;5054377;28;20079;-83
2022/07/31 11:26:12;;;;;;;0.10;0.10;;;;;;;;;;5048725;28;20095;-86
2022/07/31 11:28:38;;;;;;;0.05;0.05;;;;;;;;;;5053109;28;20044;-86
2022/07/31 11:31:05;;;;;;;0.00;0.00;;;;;;;;;;5054375;28;20040;-85
2022/07/31 11:33:31;;;;;;;0.00;0.00;;;;;;;;;;5051366;28;20169;-88
2022/07/31 11:36:16;;;;;;;0.10;0.10;;;;;;;;;;5055945;28;20059;-87
2022/07/31 11:38:48;;;;;;;0.10;0.10;;;;;;;;;;5054913;28;20044;-87
2022/07/31 11:41:14;;;;;;;0.03;0.03;;;;;;;;;;5054968;28;20036;-87
2022/07/31 11:43:44;;;;;;;0.00;0.00;;;;;;;;;;5059349;28;20140;-89
2022/07/31 11:46:10;;;;;;;0.00;0.00;;;;;;;;;;5059896;28;20256;-89
2022/07/31 11:48:39;;;;;;;0.10;0.10;;;;;;;;;;5062122;28;20036;-87
2022/07/31 11:51:06;;;;;;;0.10;0.10;;;;;;;;;;5082541;28;20044;-88
2022/07/31 11:53:38;;;;;;;0.00;0.00;;;;;;;;;;5066224;28;20130;-88
2022/07/31 11:56:05;;;;;;;0.00;0.00;;;;;;;;;;5064254;28;20028;-89
2022/07/31 11:58:32;;;;;;;0.00;0.00;;;;;;;;;;5066200;28;20397;-89
2022/07/31 12:00:59;;;;;;;0.08;0.08;;;;;;;;;;5065920;28;20043;-88
2022/07/31 12:03:30;;;;;;;0.00;0.00;;;;;;;;;;5040241;28;20075;-89
2022/07/31 12:05:56;;;;;;;0.10;0.10;;;;;;;;;;5066727;28;20507;-88
2022/07/31 12:08:23;;;;;;;0.00;0.00;;;;;;;;;;5082421;28;20040;-88
2022/07/31 12:10:52;;;;;;;0.10;0.10;;;;;;;;;;5066277;28;20130;-88
2022/07/31 12:13:18;;;;;;;0.00;0.00;;;;;;;;;;5064934;28;20043;-89
2022/07/31 12:16:04;;;;;;;0.10;0.10;;;;;;;;;;5064724;28;20485;-90
2022/07/31 12:18:32;;;;;;;0.10;0.10;;;;;;;;;;5058912;28;20032;-89
2022/07/31 12:21:00;;;;;;;0.00;0.00;;;;;;;;;;5066748;28;20035;-88
2022/07/31 12:23:27;;;;;;;0.00;0.00;;;;;;;;;;5067533;28;20051;-88
2022/07/31 12:25:53;;;;;;;0.10;0.10;;;;;;;;;;5065838;28;20409;-89
2022/07/31 12:28:19;;;;;;;0.00;0.00;;;;;;;;;;5066763;28;20060;-88
2022/07/31 12:30:46;;;;;;;0.13;0.13;;;;;;;;;;5066480;28;20051;-88
2022/07/31 12:33:13;;;;;;;0.00;0.00;;;;;;;;;;5066387;28;20485;-89
2022/07/31 12:35:40;;;;;;;0.20;0.20;;;;;;;;;;5083743;28;20167;-90
2022/07/31 12:38:06;;;;;;;0.00;0.00;;;;;;;;;;5067631;28;20027;-90
2022/07/31 12:40:33;;;;;;;0.00;0.00;;;;;;;;;;5075902;28;20037;-89
2022/07/31 12:42:59;;;;;;;0.10;0.10;;;;;;;;;;5066376;28;20608;-90
2022/07/31 12:45:32;;;;;;;0.10;0.10;;;;;;;;;;5066933;28;20413;-87
2022/07/31 12:47:58;;;;;;;0.10;0.10;;;;;;;;;;5064560;28;20040;-89
2022/07/31 12:50:26;;;;;;;0.10;0.10;;;;;;;;;;5066855;28;20086;-90
2022/07/31 12:52:52;;;;;;;0.00;0.00;;;;;;;;;;5070708;28;20044;-90
2022/07/31 12:55:18;;;;;;;0.10;0.10;;;;;;;;;;5068552;28;20044;-89
2022/07/31 12:57:45;;;;;;;0.03;0.03;;;;;;;;;;5066051;28;20040;-90
2022/07/31 13:00:11;;;;;;;0.10;0.10;;;;;;;;;;5068096;28;20040;-90
2022/07/31 13:02:37;;;;;;;0.10;0.10;;;;;;;;;;5063801;28;20131;-90
2022/07/31 13:05:03;;;;;;;0.10;0.10;;;;;;;;;;5066955;28;20059;-90
2022/07/31 13:07:29;;;;;;;0.10;0.10;;;;;;;;;;5063386;28;20070;-88
2022/07/31 13:09:55;;;;;;;0.05;0.05;;;;;;;;;;5066045;28;20190;-89
2022/07/31 13:12:21;;;;;;;0.10;0.10;;;;;;;;;;5065347;28;20047;-88
2022/07/31 13:14:47;;;;;;;0.08;0.08;;;;;;;;;;5081325;28;20044;-89
2022/07/31 13:17:13;;;;;;;0.00;0.00;;;;;;;;;;5066112;28;20040;-89
2022/07/31 13:19:39;;;;;;;0.00;0.00;;;;;;;;;;5081449;28;20051;-89
2022/07/31 13:22:05;;;;;;;0.05;0.05;;;;;;;;;;5067108;28;20040;-90
2022/07/31 13:24:31;;;;;;;0.10;0.10;;;;;;;;;;5068556;28;20069;-91
2022/07/31 13:26:58;;;;;;;0.10;0.10;;;;;;;;;;5084998;28;20088;-90
2022/07/31 13:29:24;;;;;;;0.10;0.10;;;;;;;;;;5068468;28;20040;-91
2022/07/31 13:31:50;;;;;;;0.10;0.10;;;;;;;;;;5085550;28;20051;-90
2022/07/31 13:34:16;;;;;;;0.10;0.10;;;;;;;;;;5069094;28;20035;-90
2022/07/31 13:36:42;;;;;;;0.10;0.10;;;;;;;;;;5085296;28;20096;-91
2022/07/31 13:39:08;;;;;;;0.00;0.00;;;;;;;;;;5065289;28;20058;-90
2022/07/31 13:41:35;;;;;;;0.10;0.10;;;;;;;;;;5084756;28;20040;-91
2022/07/31 13:44:01;;;;;;;0.00;0.00;;;;;;;;;;5067289;28;20036;-92
2022/07/31 13:46:30;;;;;;;0.00;0.00;;;;;;;;;;5068170;28;20040;-91
2022/07/31 13:48:59;;;;;;;0.03;0.03;;;;;;;;;;5068234;28;20042;-91
2022/07/31 13:51:26;;;;;;;0.10;0.10;;;;;;;;;;5068400;28;20401;-91
2022/07/31 13:53:52;;;;;;;0.10;0.10;;;;;;;;;;5067011;28;20039;-91
2022/07/31 13:56:19;;;;;;;0.10;0.10;;;;;;;;;;5068210;28;20040;-90
2022/07/31 13:58:45;;;;;;;0.10;0.10;;;;;;;;;;5067837;28;20378;-90
2022/07/31 14:01:11;;;;;;;0.10;0.10;;;;;;;;;;5067768;28;20048;-91
2022/07/31 14:03:37;;;;;;;0.03;0.03;;;;;;;;;;5066088;28;20076;-90
2022/07/31 14:06:03;;;;;;;0.00;0.00;;;;;;;;;;5068188;28;20493;-92
2022/07/31 14:08:30;;;;;;;0.10;0.10;;;;;;;;;;5069130;28;20043;-89
2022/07/31 14:10:56;;;;;;;0.05;0.05;;;;;;;;;;5067957;28;20035;-89
2022/07/31 14:13:22;;;;;;;0.00;0.00;;;;;;;;;;5083994;28;20473;-88
2022/07/31 14:15:48;;;;;;;0.10;0.10;;;;;;;;;;5067160;28;20401;-89
2022/07/31 14:18:14;;;;;;;0.00;0.00;;;;;;;;;;5086530;28;20039;-90
2022/07/31 14:20:40;;;;;;;0.00;0.00;;;;;;;;;;5069948;28;20104;-89
2022/07/31 14:23:07;;;;;;;0.05;0.05;;;;;;;;;;5086101;28;20036;-91
2022/07/31 14:25:35;;;;;;;0.03;0.03;;;;;;;;;;5067888;28;20394;-90
2022/07/31 14:28:01;;;;;;;0.10;0.10;;;;;;;;;;5068624;28;20036;-92
2022/07/31 14:30:27;;;;;;;0.10;0.10;;;;;;;;;;5066193;28;20024;-90
2022/07/31 14:32:56;;;;;;;0.00;0.00;;;;;;;;;;5068962;28;20035;-91
2022/07/31 14:35:22;;;;;;;0.10;0.10;;;;;;;;;;5068551;28;20079;-89
2022/07/31 14:37:48;;;;;;;0.00;0.00;;;;;;;;;;5067289;28;20039;-89
2022/07/31 14:40:14;;;;;;;0.03;0.03;;;;;;;;;;5068698;28;20038;-91
2022/07/31 14:42:41;;;;;;;0.00;0.00;;;;;;;;;;5046114;28;20043;-90
2022/07/31 14:45:07;;;;;;;0.20;0.20;;;;;;;;;;5057470;28;20037;-88
2022/07/31 14:47:34;;;;;;;0.10;0.10;;;;;;;;;;5057664;28;20093;-86
2022/07/31 14:50:00;;;;;;;0.10;0.10;;;;;;;;;;5053408;28;20520;-90